Time;durP1;ratioP1;P1;durP2;ratioP2;P2;SDS_P1;SDS_P2;PMS_P1;PMS_P2;Temp;Humidity;BMP_temperature;BMP_pressure;BME280_temperature;BME280_humidity;BME280_pressure;Samples;Min_cycle;Max_cycle;Signal;HPM_P1;HPM_P2
2023/04/13 00:00:44;;;;;;;1.83;1.20;;;5.50;99.40;;;;;;5052375;28;20033;-66
2023/04/13 00:03:11;;;;;;;1.75;1.30;;;5.50;99.90;;;;;;5052424;28;20051;-66
2023/04/13 00:05:40;;;;;;;2.53;1.67;;;5.50;99.90;;;;;;5052435;28;20037;-66
2023/04/13 00:08:06;;;;;;;4.30;1.80;;;5.50;99.90;;;;;;5052333;28;20083;-66
2023/04/13 00:10:35;;;;;;;2.67;1.30;;;5.50;99.90;;;;;;5052424;28;20492;-66
2023/04/13 00:13:06;;;;;;;2.85;1.52;;;5.50;99.90;;;;;;5052386;28;20083;-65
2023/04/13 00:15:35;;;;;;;4.22;1.50;;;5.50;99.90;;;;;;5051919;28;20056;-65
2023/04/13 00:18:01;;;;;;;3.25;1.70;;;5.60;99.90;;;;;;5052232;28;20102;-65
2023/04/13 00:20:28;;;;;;;3.92;1.30;;;5.60;99.90;;;;;;5052263;28;20415;-65
2023/04/13 00:22:54;;;;;;;3.30;1.70;;;5.70;99.90;;;;;;5051977;28;20045;-65
2023/04/13 00:25:19;;;;;;;2.17;1.45;;;5.80;99.90;;;;;;5052244;28;20090;-65
2023/04/13 00:27:45;;;;;;;3.13;1.40;;;5.80;98.00;;;;;;5054957;28;20450;-65
2023/04/13 00:30:15;;;;;;;5.30;1.88;;;6.00;96.30;;;;;;5055852;28;20044;-65
2023/04/13 00:32:42;;;;;;;3.00;1.50;;;6.00;94.80;;;;;;5055668;28;20045;-66
2023/04/13 00:35:18;;;;;;;2.00;1.33;;;6.10;92.10;;;;;;5055725;28;20381;-66
2023/04/13 00:37:46;;;;;;;2.70;1.40;;;6.20;89.20;;;;;;5037485;28;20080;-66
2023/04/13 00:40:12;;;;;;;2.92;1.50;;;6.20;83.80;;;;;;5055691;28;20045;-66
2023/04/13 00:42:38;;;;;;;1.88;1.27;;;6.30;80.10;;;;;;5055578;28;20154;-66
2023/04/13 00:45:04;;;;;;;3.63;1.60;;;6.30;78.40;;;;;;5055600;28;20484;-66
2023/04/13 00:47:32;;;;;;;5.53;1.73;;;6.40;72.30;;;;;;5055021;28;20041;-65
2023/04/13 00:50:02;;;;;;;4.00;1.58;;;6.40;71.30;;;;;;5055515;28;20052;-65
2023/04/13 00:52:28;;;;;;;3.92;1.90;;;6.40;73.80;;;;;;5055387;28;20046;-65
2023/04/13 00:54:56;;;;;;;1.83;1.15;;;6.40;71.70;;;;;;5055436;28;20370;-65
2023/04/13 00:57:23;;;;;;;4.60;1.73;;;6.50;73.50;;;;;;5054978;28;20048;-65
2023/04/13 00:59:49;;;;;;;2.40;1.30;;;6.50;89.40;;;;;;5055160;28;20102;-64
2023/04/13 01:02:25;;;;;;;1.38;1.00;;;6.50;95.10;;;;;;5037125;28;20053;-64
2023/04/13 01:04:54;;;;;;;2.25;1.27;;;6.50;99.10;;;;;;5055213;28;20071;-64
2023/04/13 01:07:40;;;;;;;2.58;1.77;;;6.50;99.90;;;;;;5055035;28;20045;-64
2023/04/13 01:10:18;;;;;;;1.90;1.30;;;6.40;99.90;;;;;;5054798;28;20075;-65
2023/04/13 01:13:09;;;;;;;0.95;0.75;;;6.40;99.90;;;;;;5054973;28;20117;-65
2023/04/13 01:15:45;;;;;;;3.78;1.33;;;6.30;99.90;;;;;;5054563;28;20061;-65
2023/04/13 01:18:14;;;;;;;4.20;1.23;;;7.00;99.90;;;;;;5054868;28;20121;-65
2023/04/13 01:20:42;;;;;;;2.22;1.40;;;6.30;99.90;;;;;;5054583;28;20033;-65
2023/04/13 01:23:23;;;;;;;2.88;1.27;;;6.30;99.90;;;;;;5054777;28;20041;-65
2023/04/13 01:26:06;;;;;;;2.40;0.90;;;6.20;99.90;;;;;;5054602;28;20075;-65
2023/04/13 01:28:33;;;;;;;1.60;0.82;;;6.20;99.90;;;;;;5054552;28;20451;-66
2023/04/13 01:31:00;;;;;;;1.42;0.80;;;6.20;99.90;;;;;;5054383;28;20044;-65
2023/04/13 01:33:29;;;;;;;2.17;1.10;;;6.10;99.90;;;;;;5054702;28;20045;-66
2023/04/13 01:35:55;;;;;;;1.08;0.70;;;6.10;99.90;;;;;;5054693;28;20443;-66
2023/04/13 01:38:23;;;;;;;2.65;0.88;;;6.10;99.90;;;;;;5054470;28;20055;-67
2023/04/13 01:40:49;;;;;;;1.08;0.70;;;6.00;99.90;;;;;;5054617;28;20032;-66
2023/04/13 01:43:15;;;;;;;2.30;1.05;;;6.00;99.90;;;;;;5054422;28;20040;-67
2023/04/13 01:45:49;;;;;;;1.63;1.30;;;6.00;99.90;;;;;;5054136;28;20504;-67
2023/04/13 01:48:26;;;;;;;1.98;1.05;;;6.00;99.90;;;;;;5036564;28;20040;-66
2023/04/13 01:50:57;;;;;;;1.25;0.68;;;5.90;99.90;;;;;;5036443;28;20043;-67
2023/04/13 01:53:33;;;;;;;1.00;0.63;;;5.90;99.90;;;;;;5054297;28;20091;-66
2023/04/13 01:55:59;;;;;;;4.60;2.85;;;6.00;99.90;;;;;;5036364;28;20059;-67
2023/04/13 01:58:28;;;;;;;1.38;0.70;;;5.90;99.90;;;;;;5054137;28;20048;-66
2023/04/13 02:00:54;;;;;;;2.95;0.70;;;5.90;99.90;;;;;;5036151;28;20040;-66
2023/04/13 02:03:21;;;;;;;1.80;0.80;;;5.90;99.90;;;;;;5054038;28;20037;-67
2023/04/13 02:05:47;;;;;;;1.17;0.60;;;5.90;99.90;;;;;;5053633;28;20049;-66
2023/04/13 02:08:14;;;;;;;0.63;0.63;;;5.90;99.90;;;;;;5053963;28;20111;-66
2023/04/13 02:10:41;;;;;;;1.30;1.02;;;5.90;99.90;;;;;;5053965;28;20045;-66
2023/04/13 02:13:08;;;;;;;2.70;0.77;;;5.90;99.90;;;;;;5053821;28;20041;-66
2023/04/13 02:15:34;;;;;;;0.90;0.50;;;5.90;99.90;;;;;;5053385;28;20056;-66
2023/04/13 02:18:00;;;;;;;1.55;0.77;;;5.90;99.90;;;;;;5053743;28;20045;-66
2023/04/13 02:20:29;;;;;;;1.73;0.80;;;5.90;99.90;;;;;;5035877;28;20044;-66
2023/04/13 02:22:54;;;;;;;1.23;0.88;;;5.90;99.90;;;;;;5035756;28;20127;-66
2023/04/13 02:25:20;;;;;;;1.25;0.70;;;5.90;99.90;;;;;;5053668;28;20591;-66
2023/04/13 02:27:46;;;;;;;3.33;0.65;;;5.80;99.90;;;;;;5053135;28;20064;-67
2023/04/13 02:30:11;;;;;;;0.98;0.80;;;5.80;99.90;;;;;;5053578;28;20029;-66
2023/04/13 02:32:40;;;;;;;1.02;0.90;;;5.90;99.90;;;;;;5053592;28;20048;-66
2023/04/13 02:35:10;;;;;;;2.15;0.60;;;5.90;99.90;;;;;;5018911;28;20040;-66
2023/04/13 02:37:39;;;;;;;1.83;0.95;;;5.90;99.90;;;;;;5053419;28;20076;-66
2023/04/13 02:40:08;;;;;;;1.33;0.52;;;5.80;99.90;;;;;;5053082;28;20041;-66
2023/04/13 02:42:33;;;;;;;1.02;0.90;;;5.80;99.90;;;;;;5035622;28;20041;-66
2023/04/13 02:44:59;;;;;;;1.63;0.57;;;5.80;99.90;;;;;;5018747;28;20476;-66
2023/04/13 02:47:25;;;;;;;2.95;0.70;;;5.80;99.90;;;;;;5053209;28;20481;-66
2023/04/13 02:49:51;;;;;;;1.08;0.70;;;5.80;99.90;;;;;;5052790;28;20069;-66
2023/04/13 02:52:16;;;;;;;0.93;0.82;;;5.80;99.90;;;;;;5053241;28;20120;-66
2023/04/13 02:54:42;;;;;;;1.00;0.70;;;5.80;99.90;;;;;;5053150;28;20033;-66
2023/04/13 02:57:12;;;;;;;1.02;0.70;;;5.80;99.90;;;;;;5053140;28;20045;-66
2023/04/13 02:59:39;;;;;;;2.03;0.90;;;5.80;99.90;;;;;;5053086;28;20083;-66
2023/04/13 03:02:05;;;;;;;1.42;0.60;;;5.80;99.90;;;;;;5053050;28;20128;-66
2023/04/13 03:04:31;;;;;;;0.95;0.55;;;5.90;99.90;;;;;;5053071;28;20044;-66
2023/04/13 03:06:57;;;;;;;0.93;0.80;;;5.80;99.90;;;;;;5053013;28;20495;-66
2023/04/13 03:09:24;;;;;;;1.98;0.73;;;5.90;99.90;;;;;;5053073;28;20378;-66
2023/04/13 03:11:50;;;;;;;1.98;0.65;;;5.80;99.90;;;;;;5034999;28;20404;-66
2023/04/13 03:14:21;;;;;;;1.27;0.68;;;5.80;99.90;;;;;;5052639;28;20084;-66
2023/04/13 03:16:47;;;;;;;1.75;0.70;;;5.80;99.90;;;;;;5052677;28;20045;-66
2023/04/13 03:19:14;;;;;;;1.00;0.52;;;5.80;99.90;;;;;;5034845;28;20037;-66
2023/04/13 03:21:40;;;;;;;1.20;0.60;;;5.80;99.90;;;;;;5052950;28;20041;-67
2023/04/13 03:24:06;;;;;;;1.08;0.70;;;5.80;99.90;;;;;;5052685;28;20045;-66
2023/04/13 03:26:32;;;;;;;2.97;0.73;;;5.80;99.90;;;;;;5052559;28;20044;-66
2023/04/13 03:28:57;;;;;;;1.02;0.70;;;5.90;99.90;;;;;;5052577;28;20041;-66
2023/04/13 03:31:23;;;;;;;1.75;0.63;;;5.90;99.90;;;;;;5052834;28;20128;-67
2023/04/13 03:33:49;;;;;;;2.20;0.60;;;5.90;99.90;;;;;;5052830;28;20037;-67
2023/04/13 03:36:15;;;;;;;0.98;0.70;;;5.90;99.90;;;;;;5052744;28;20044;-68
2023/04/13 03:38:41;;;;;;;1.90;0.50;;;5.90;99.90;;;;;;5052809;28;20047;-66
2023/04/13 03:41:07;;;;;;;2.38;1.02;;;5.90;99.90;;;;;;5052722;28;20073;-65
2023/04/13 03:43:32;;;;;;;0.65;0.60;;;6.00;99.90;;;;;;5052754;28;20044;-66
2023/04/13 03:45:58;;;;;;;0.65;0.52;;;6.00;99.90;;;;;;5052642;28;20037;-65
2023/04/13 03:48:24;;;;;;;3.67;1.30;;;6.00;99.90;;;;;;5052676;28;20448;-66
2023/04/13 03:50:49;;;;;;;0.60;0.60;;;6.00;99.90;;;;;;5034712;28;20040;-65
2023/04/13 03:53:15;;;;;;;1.73;0.75;;;6.00;99.90;;;;;;5052569;28;20058;-65
2023/04/13 03:55:41;;;;;;;2.15;1.02;;;6.00;99.90;;;;;;5052568;28;20048;-66
2023/04/13 03:58:06;;;;;;;2.17;0.65;;;6.00;99.90;;;;;;5052504;28;20041;-65
2023/04/13 04:00:32;;;;;;;3.28;0.80;;;6.00;99.90;;;;;;5052277;28;20047;-65
2023/04/13 04:02:57;;;;;;;1.10;0.70;;;6.00;99.90;;;;;;5037910;28;20391;-65
2023/04/13 04:05:23;;;;;;;0.90;0.70;;;6.00;99.90;;;;;;5038137;28;20048;-66
2023/04/13 04:07:48;;;;;;;1.85;0.68;;;6.00;99.90;;;;;;5056250;28;20530;-67
2023/04/13 04:10:16;;;;;;;1.08;0.65;;;6.00;99.90;;;;;;5055934;28;20036;-65
2023/04/13 04:12:42;;;;;;;1.27;0.77;;;6.00;99.90;;;;;;5055950;28;20095;-66
2023/04/13 04:15:08;;;;;;;1.23;0.65;;;6.00;99.90;;;;;;5055615;28;20049;-65
2023/04/13 04:17:33;;;;;;;2.58;0.57;;;6.00;99.90;;;;;;5038572;28;20118;-66
2023/04/13 04:19:59;;;;;;;0.57;0.50;;;6.00;99.90;;;;;;5056037;28;20037;-68
2023/04/13 04:22:28;;;;;;;1.95;0.63;;;6.10;99.90;;;;;;5056482;28;20102;-68
2023/04/13 04:24:57;;;;;;;0.85;0.68;;;6.10;99.90;;;;;;5055914;28;20392;-68
2023/04/13 04:27:25;;;;;;;0.60;0.50;;;6.10;99.90;;;;;;5055837;28;20423;-67
2023/04/13 04:29:51;;;;;;;2.90;0.60;;;6.10;99.90;;;;;;5037745;28;20036;-67
2023/04/13 04:32:18;;;;;;;1.27;0.65;;;6.10;99.90;;;;;;5055509;28;20087;-68
2023/04/13 04:34:45;;;;;;;0.47;0.40;;;6.10;99.90;;;;;;5055870;28;20116;-70
2023/04/13 04:37:12;;;;;;;2.42;0.77;;;6.10;99.90;;;;;;5055423;28;20106;-68
2023/04/13 04:39:43;;;;;;;0.82;0.60;;;6.10;99.90;;;;;;5055690;28;20037;-68
2023/04/13 04:42:09;;;;;;;0.93;0.67;;;6.10;99.90;;;;;;5055664;28;20044;-69
2023/04/13 04:44:36;;;;;;;2.10;1.33;;;6.10;99.90;;;;;;5055276;28;20040;-69
2023/04/13 04:47:03;;;;;;;0.82;0.57;;;6.10;99.90;;;;;;5055431;28;20052;-68
2023/04/13 04:49:29;;;;;;;1.23;0.60;;;6.10;99.90;;;;;;5055474;28;20429;-67
2023/04/13 04:51:56;;;;;;;1.52;0.98;;;6.00;99.90;;;;;;5055435;28;20037;-67
2023/04/13 04:54:22;;;;;;;2.33;1.20;;;6.00;99.90;;;;;;5055373;28;20029;-68
2023/04/13 04:56:49;;;;;;;1.15;0.93;;;6.10;99.90;;;;;;5055333;28;20064;-68
2023/04/13 04:59:16;;;;;;;2.05;1.10;;;6.10;99.90;;;;;;5055386;28;20041;-68
2023/04/13 05:01:42;;;;;;;1.65;0.90;;;6.10;99.90;;;;;;5055261;28;20115;-68
2023/04/13 05:04:08;;;;;;;2.30;1.38;;;6.00;99.90;;;;;;5054952;28;20548;-68
2023/04/13 05:06:34;;;;;;;3.47;1.30;;;6.00;99.90;;;;;;5054842;28;20076;-68
2023/04/13 05:09:00;;;;;;;1.90;1.30;;;6.00;99.90;;;;;;5055169;28;20079;-67
2023/04/13 05:11:28;;;;;;;2.45;1.13;;;6.10;99.90;;;;;;5055047;28;20037;-69
2023/04/13 05:13:54;;;;;;;3.47;1.75;;;6.10;99.90;;;;;;5054250;28;20438;-67
2023/04/13 05:16:21;;;;;;;1.70;1.23;;;6.10;99.90;;;;;;5054843;28;20052;-67
2023/04/13 05:18:47;;;;;;;2.53;1.52;;;6.10;99.90;;;;;;5054804;28;20041;-67
2023/04/13 05:21:14;;;;;;;3.42;1.55;;;6.20;99.90;;;;;;5055032;28;20071;-68
2023/04/13 05:23:41;;;;;;;3.17;1.75;;;6.20;99.90;;;;;;5055124;28;20469;-68
2023/04/13 05:26:08;;;;;;;2.55;1.58;;;6.20;99.90;;;;;;5054754;28;20373;-67
2023/04/13 05:28:34;;;;;;;1.02;0.93;;;6.20;99.90;;;;;;5054619;28;20543;-67
2023/04/13 05:31:05;;;;;;;6.50;1.80;;;6.20;99.90;;;;;;5054945;28;20114;-67
2023/04/13 05:33:32;;;;;;;2.85;1.60;;;6.20;99.90;;;;;;5054834;28;20045;-68
2023/04/13 05:35:58;;;;;;;2.92;1.55;;;6.20;99.90;;;;;;5054559;28;20415;-67
2023/04/13 05:38:24;;;;;;;2.63;1.25;;;6.20;99.90;;;;;;5054663;28;20041;-66
2023/04/13 05:40:49;;;;;;;3.67;1.70;;;6.20;99.90;;;;;;5054738;28;20033;-67
2023/04/13 05:43:15;;;;;;;2.42;1.35;;;6.30;99.90;;;;;;5054399;28;20470;-66
2023/04/13 05:45:42;;;;;;;3.03;1.30;;;6.30;99.90;;;;;;5054589;28;20037;-66
2023/04/13 05:48:07;;;;;;;2.05;1.38;;;6.40;99.90;;;;;;5053963;28;20049;-67
2023/04/13 05:50:33;;;;;;;3.15;1.38;;;6.40;99.90;;;;;;5054360;28;20123;-67
2023/04/13 05:52:59;;;;;;;2.05;1.30;;;6.50;99.90;;;;;;5054344;28;20064;-68
2023/04/13 05:55:26;;;;;;;1.85;1.10;;;6.50;99.90;;;;;;5053953;28;20037;-67
2023/04/13 05:57:52;;;;;;;3.10;1.52;;;6.50;99.90;;;;;;5054235;28;20447;-66
2023/04/13 06:00:19;;;;;;;3.13;1.58;;;6.50;99.90;;;;;;5054149;28;20033;-66
2023/04/13 06:02:47;;;;;;;2.10;1.48;;;6.50;99.90;;;;;;5054141;28;20476;-66
2023/04/13 06:05:14;;;;;;;1.77;1.17;;;6.50;99.90;;;;;;5054094;28;20412;-66
2023/04/13 06:07:43;;;;;;;2.35;1.45;;;6.50;99.90;;;;;;5054051;28;20045;-66
2023/04/13 06:10:09;;;;;;;2.08;1.40;;;6.60;99.90;;;;;;5053985;28;20098;-66
2023/04/13 06:12:35;;;;;;;2.55;1.67;;;6.60;99.90;;;;;;5053954;28;20068;-67
2023/04/13 06:15:01;;;;;;;2.67;1.50;;;6.70;99.90;;;;;;5053606;28;20574;-66
2023/04/13 06:17:26;;;;;;;3.72;1.40;;;7.10;99.90;;;;;;5036071;28;20392;-66
2023/04/13 06:19:53;;;;;;;1.65;0.95;;;6.80;99.90;;;;;;5053454;28;20045;-67
2023/04/13 06:22:19;;;;;;;2.28;1.25;;;6.90;99.90;;;;;;5054212;28;20512;-68
2023/04/13 06:24:44;;;;;;;2.33;1.00;;;6.90;99.90;;;;;;5052954;28;20052;-67
2023/04/13 06:27:11;;;;;;;2.97;1.27;;;6.90;99.90;;;;;;5053631;28;20037;-68
2023/04/13 06:29:37;;;;;;;2.70;1.38;;;6.90;99.90;;;;;;5053659;28;20041;-68
2023/04/13 06:32:03;;;;;;;4.60;2.20;;;6.90;99.90;;;;;;5053251;28;20036;-67
2023/04/13 06:34:30;;;;;;;2.05;1.23;;;6.90;99.90;;;;;;5053514;28;20040;-67
2023/04/13 06:36:56;;;;;;;1.52;1.10;;;6.90;99.90;;;;;;5035640;28;20140;-67
2023/04/13 06:39:22;;;;;;;2.40;1.30;;;6.90;99.90;;;;;;5053401;28;20048;-67
2023/04/13 06:41:47;;;;;;;4.68;1.75;;;7.00;99.90;;;;;;5053447;28;20037;-67
2023/04/13 06:47:42;;;;;;;2.80;1.70;;;7.10;99.90;;;;;;5053285;28;20041;-66
2023/04/13 06:50:10;;;;;;;3.97;1.73;;;7.30;99.90;;;;;;5053220;28;20105;-67
2023/04/13 06:56:16;;;;;;;4.03;1.60;;;7.40;99.90;;;;;;5052965;28;20112;-66
2023/04/13 06:58:41;;;;;;;3.72;2.00;;;7.60;99.90;;;;;;5053194;28;20057;-66
2023/04/13 07:01:07;;;;;;;2.40;1.75;;;7.80;99.90;;;;;;5052853;28;20040;-66
2023/04/13 07:03:33;;;;;;;6.28;2.08;;;7.90;99.90;;;;;;5052788;28;20521;-67
2023/04/13 07:05:58;;;;;;;2.42;1.60;;;8.10;99.90;;;;;;5035211;28;20036;-67
2023/04/13 07:08:24;;;;;;;3.13;1.73;;;8.10;99.90;;;;;;5053067;28;20040;-67
2023/04/13 07:10:54;;;;;;;5.95;1.92;;;8.50;99.90;;;;;;5053047;28;20086;-67
2023/04/13 07:13:19;;;;;;;7.07;1.92;;;8.20;99.90;;;;;;5053004;28;20037;-67
2023/04/13 07:15:45;;;;;;;3.10;1.80;;;8.30;99.90;;;;;;5052543;28;20487;-67
2023/04/13 07:18:11;;;;;;;2.00;1.17;;;8.10;99.90;;;;;;5052654;28;20579;-67
2023/04/13 07:20:38;;;;;;;3.25;1.80;;;8.00;99.90;;;;;;5052954;28;20040;-67
2023/04/13 07:23:04;;;;;;;6.32;1.83;;;8.00;99.90;;;;;;5052928;28;20045;-67
2023/04/13 07:25:30;;;;;;;3.17;1.67;;;8.00;99.90;;;;;;5052808;28;20045;-67
2023/04/13 07:27:56;;;;;;;4.65;1.60;;;8.00;99.90;;;;;;5052565;28;20076;-67
2023/04/13 07:30:21;;;;;;;3.45;1.58;;;8.10;99.90;;;;;;5052428;28;20044;-67
2023/04/13 07:32:47;;;;;;;2.45;1.45;;;8.20;99.90;;;;;;5052918;28;20033;-67
2023/04/13 07:35:13;;;;;;;2.75;2.03;;;8.20;99.90;;;;;;5053414;28;20068;-67
2023/04/13 07:37:39;;;;;;;1.75;1.55;;;8.20;99.90;;;;;;5056868;28;20052;-68
2023/04/13 07:40:05;;;;;;;2.60;1.90;;;8.10;99.90;;;;;;5038933;28;20045;-67
2023/04/13 07:42:31;;;;;;;2.08;1.30;;;8.20;99.90;;;;;;5056566;28;20033;-67
2023/04/13 07:44:56;;;;;;;5.05;1.48;;;8.20;99.90;;;;;;5056674;28;20488;-67
2023/04/13 07:47:22;;;;;;;3.15;1.35;;;8.20;99.90;;;;;;5056175;28;20123;-67
2023/04/13 07:49:48;;;;;;;1.98;1.25;;;8.10;99.90;;;;;;5056600;28;20033;-67
2023/04/13 07:52:13;;;;;;;2.05;1.15;;;8.10;99.90;;;;;;5056275;28;20447;-67
2023/04/13 07:54:39;;;;;;;2.63;1.17;;;8.30;99.90;;;;;;5056172;28;20047;-67
2023/04/13 07:57:05;;;;;;;1.60;1.00;;;8.50;99.90;;;;;;5056140;28;20099;-68
2023/04/13 07:59:31;;;;;;;2.38;1.23;;;8.70;99.90;;;;;;5056424;28;20109;-67
2023/04/13 08:01:57;;;;;;;2.55;1.10;;;8.50;99.90;;;;;;5055993;28;20044;-68
2023/04/13 08:04:23;;;;;;;5.13;1.67;;;8.90;99.90;;;;;;5056378;28;20043;-68
2023/04/13 08:06:48;;;;;;;1.55;1.00;;;9.50;99.90;;;;;;5056239;28;20041;-67
2023/04/13 08:09:14;;;;;;;1.75;0.65;;;8.90;99.90;;;;;;5055848;28;20032;-67
2023/04/13 08:11:41;;;;;;;2.53;1.00;;;9.40;99.90;;;;;;5056219;28;20033;-67
2023/04/13 08:14:08;;;;;;;3.97;1.38;;;8.80;99.90;;;;;;5037871;28;20400;-67
2023/04/13 08:16:34;;;;;;;2.67;1.00;;;8.60;99.90;;;;;;5056154;28;20068;-67
2023/04/13 08:19:00;;;;;;;1.85;0.98;;;8.50;99.90;;;;;;5056034;28;20063;-67
2023/04/13 08:21:26;;;;;;;2.78;0.75;;;8.40;99.90;;;;;;5055783;28;20036;-67
2023/04/13 08:23:52;;;;;;;2.13;1.10;;;8.40;99.90;;;;;;5056042;28;20207;-67
2023/04/13 08:26:19;;;;;;;2.15;1.10;;;8.40;99.90;;;;;;5055822;28;20044;-68
2023/04/13 08:28:47;;;;;;;1.70;0.95;;;8.40;99.90;;;;;;5055839;28;20063;-67
2023/04/13 08:31:13;;;;;;;1.05;0.82;;;8.40;99.90;;;;;;5055824;28;20044;-67
2023/04/13 08:33:39;;;;;;;2.25;1.20;;;8.40;99.90;;;;;;5055432;28;20036;-68
2023/04/13 08:36:05;;;;;;;2.65;1.33;;;8.40;99.90;;;;;;5037628;28;20033;-67
2023/04/13 08:38:32;;;;;;;7.43;2.20;;;8.30;99.90;;;;;;5055640;28;20396;-68
2023/04/13 08:41:00;;;;;;;1.45;1.15;;;8.30;99.90;;;;;;5055624;28;20044;-67
2023/04/13 08:43:26;;;;;;;2.40;1.45;;;8.10;99.90;;;;;;5055582;28;20041;-68
2023/04/13 08:45:52;;;;;;;2.10;0.90;;;8.00;99.90;;;;;;5055518;28;20063;-67
2023/04/13 08:48:18;;;;;;;1.98;1.00;;;8.10;99.90;;;;;;5054322;28;20037;-67
2023/04/13 08:50:45;;;;;;;1.83;1.13;;;8.00;99.90;;;;;;5037349;28;20052;-67
2023/04/13 08:53:11;;;;;;;2.53;1.25;;;8.00;99.90;;;;;;5055508;28;20047;-67
2023/04/13 08:55:44;;;;;;;2.35;0.85;;;8.10;99.90;;;;;;5055424;28;20544;-67
2023/04/13 08:58:11;;;;;;;0.65;0.57;;;8.10;99.90;;;;;;5055464;28;20047;-67
2023/04/13 09:00:38;;;;;;;0.93;0.73;;;8.20;99.90;;;;;;5055400;28;20037;-67
2023/04/13 09:03:06;;;;;;;2.47;0.85;;;8.20;99.90;;;;;;5037406;28;20056;-67
2023/04/13 09:05:37;;;;;;;1.08;0.68;;;8.50;99.90;;;;;;5055384;28;20539;-67
2023/04/13 09:08:06;;;;;;;3.20;0.80;;;8.70;99.90;;;;;;5055258;28;20037;-67
2023/04/13 09:10:32;;;;;;;3.22;0.93;;;9.00;99.90;;;;;;5054999;28;20388;-67
2023/04/13 09:12:59;;;;;;;1.23;0.50;;;9.00;99.90;;;;;;5054939;28;20033;-67
2023/04/13 09:15:25;;;;;;;0.85;0.50;;;9.00;99.90;;;;;;5054796;28;20468;-68
2023/04/13 09:17:51;;;;;;;3.35;0.50;;;8.80;99.90;;;;;;5055068;28;20036;-67
2023/04/13 09:20:20;;;;;;;1.52;0.55;;;8.70;99.90;;;;;;5054987;28;20075;-67
2023/04/13 09:22:46;;;;;;;0.60;0.30;;;8.50;99.90;;;;;;5054761;28;20040;-68
2023/04/13 09:25:32;;;;;;;3.80;0.35;;;8.40;99.90;;;;;;5054967;28;20442;-67
2023/04/13 09:27:58;;;;;;;0.35;0.30;;;8.70;99.90;;;;;;5054341;28;20122;-67
2023/04/13 09:30:26;;;;;;;0.15;0.15;;;8.10;99.90;;;;;;5054836;28;20116;-68
2023/04/13 09:33:09;;;;;;;0.40;0.38;;;8.00;99.90;;;;;;5054819;28;20033;-69
2023/04/13 09:35:35;;;;;;;0.20;0.20;;;8.00;99.90;;;;;;5054767;28;20073;-68
2023/04/13 09:38:01;;;;;;;0.30;0.30;;;8.10;99.90;;;;;;5054426;28;20167;-68
2023/04/13 09:40:27;;;;;;;0.32;0.28;;;8.40;99.90;;;;;;5054254;28;20055;-68
2023/04/13 09:43:05;;;;;;;0.17;0.17;;;8.70;99.90;;;;;;5054628;28;20033;-67
2023/04/13 09:45:39;;;;;;;1.33;0.47;;;8.90;99.90;;;;;;5036482;28;20049;-68
2023/04/13 09:48:16;;;;;;;2.67;0.55;;;8.80;99.90;;;;;;5054440;28;20047;-69
2023/04/13 09:50:42;;;;;;;3.60;0.60;;;8.70;99.90;;;;;;5054470;28;20047;-67
2023/04/13 09:53:09;;;;;;;0.68;0.40;;;8.50;99.90;;;;;;5054021;28;20082;-67
2023/04/13 09:55:36;;;;;;;1.70;0.30;;;8.50;99.90;;;;;;5054367;28;20542;-67
2023/04/13 09:58:16;;;;;;;1.08;0.52;;;8.60;99.90;;;;;;5053852;28;20071;-67
2023/04/13 10:00:45;;;;;;;1.40;0.60;;;8.90;99.90;;;;;;5053675;28;20112;-67
2023/04/13 10:03:15;;;;;;;1.38;0.80;;;9.20;99.90;;;;;;5054190;28;20088;-67
2023/04/13 10:05:42;;;;;;;1.08;0.70;;;9.50;99.90;;;;;;5054098;28;20060;-67
2023/04/13 10:08:08;;;;;;;0.70;0.60;;;9.70;99.90;;;;;;5053581;28;20045;-67
2023/04/13 10:10:35;;;;;;;5.35;0.70;;;9.60;99.90;;;;;;5035810;28;20059;-68
2023/04/13 10:13:10;;;;;;;4.22;0.93;;;9.50;99.90;;;;;;5053786;28;20033;-67
2023/04/13 10:15:49;;;;;;;0.80;0.60;;;9.60;99.90;;;;;;5053608;28;20119;-67
2023/04/13 10:18:48;;;;;;;2.33;0.52;;;9.50;99.90;;;;;;5053844;28;20056;-67
2023/04/13 10:21:15;;;;;;;0.50;0.40;;;9.40;99.90;;;;;;5022659;28;20060;-67
2023/04/13 10:23:42;;;;;;;0.70;0.40;;;9.40;99.90;;;;;;5053452;28;20041;-67
2023/04/13 10:26:08;;;;;;;2.63;0.43;;;9.10;99.90;;;;;;5035774;28;20045;-68
2023/04/13 10:28:47;;;;;;;0.63;0.57;;;8.90;99.90;;;;;;5053314;28;20037;-67
2023/04/13 10:31:13;;;;;;;1.13;0.25;;;8.50;99.90;;;;;;5053379;28;20041;-67
2023/04/13 10:33:47;;;;;;;1.55;0.40;;;8.40;99.90;;;;;;5053643;28;20033;-66
2023/04/13 10:36:12;;;;;;;0.32;0.22;;;8.30;99.90;;;;;;5053303;28;20484;-67
2023/04/13 10:38:45;;;;;;;0.68;0.40;;;8.60;99.90;;;;;;5053457;28;20037;-67
2023/04/13 10:41:31;;;;;;;1.50;0.45;;;8.70;99.90;;;;;;5035597;28;20041;-67
2023/04/13 10:44:04;;;;;;;0.93;0.57;;;8.60;99.90;;;;;;5052806;28;20051;-68
2023/04/13 10:46:32;;;;;;;0.60;0.38;;;8.50;99.90;;;;;;5035254;28;20454;-67
2023/04/13 10:48:58;;;;;;;0.68;0.40;;;8.40;99.90;;;;;;5053296;28;20423;-67
2023/04/13 10:51:45;;;;;;;0.90;0.30;;;8.40;99.90;;;;;;5053240;28;20051;-68
2023/04/13 10:54:12;;;;;;;0.20;0.20;;;8.20;99.90;;;;;;5052933;28;20072;-68
2023/04/13 10:56:39;;;;;;;0.20;0.20;;;8.00;99.90;;;;;;5035106;28;20040;-67
2023/04/13 10:59:05;;;;;;;0.38;0.38;;;7.80;99.90;;;;;;5053221;28;20080;-67
2023/04/13 11:01:31;;;;;;;0.20;0.20;;;7.80;99.90;;;;;;5052797;28;20037;-67
2023/04/13 11:04:03;;;;;;;0.68;0.30;;;7.80;99.90;;;;;;5053109;28;20040;-67
2023/04/13 11:06:37;;;;;;;5.32;0.50;;;7.90;99.90;;;;;;5052943;28;20041;-67
2023/04/13 11:09:05;;;;;;;1.55;0.40;;;8.10;99.90;;;;;;5052668;28;20037;-67
2023/04/13 11:11:31;;;;;;;1.58;0.43;;;8.20;99.90;;;;;;5035138;28;20043;-66
2023/04/13 11:13:57;;;;;;;5.53;0.90;;;8.40;99.90;;;;;;5053070;28;20375;-67
2023/04/13 11:16:22;;;;;;;1.30;0.50;;;8.30;99.90;;;;;;5051829;28;20040;-67
2023/04/13 11:18:48;;;;;;;0.65;0.55;;;8.40;99.90;;;;;;5052951;28;20112;-67
2023/04/13 11:21:17;;;;;;;3.42;0.77;;;8.70;99.90;;;;;;5052681;28;20033;-67
2023/04/13 11:23:52;;;;;;;2.72;0.30;;;9.40;99.90;;;;;;5052648;28;20033;-67
2023/04/13 11:26:29;;;;;;;2.78;0.70;;;9.30;99.90;;;;;;5034694;28;20049;-67
2023/04/13 11:28:56;;;;;;;1.10;0.52;;;9.40;99.90;;;;;;5018340;28;20037;-67
2023/04/13 11:31:33;;;;;;;0.22;0.22;;;9.60;99.90;;;;;;5052413;28;20079;-68
2023/04/13 11:33:58;;;;;;;4.68;0.63;;;9.70;99.90;;;;;;5052844;28;20400;-66
2023/04/13 11:36:25;;;;;;;1.95;0.93;;;9.90;99.90;;;;;;5052811;28;20052;-66
2023/04/13 11:38:53;;;;;;;6.13;1.40;;;10.00;99.90;;;;;;5052860;28;20041;-67
2023/04/13 11:41:18;;;;;;;4.47;1.25;;;10.00;99.90;;;;;;5034577;28;20048;-66
2023/04/13 11:43:44;;;;;;;1.13;0.73;;;10.00;99.90;;;;;;5052764;28;20033;-67
2023/04/13 11:46:12;;;;;;;0.77;0.38;;;9.90;99.90;;;;;;5052537;28;20471;-67
2023/04/13 11:48:38;;;;;;;2.88;0.98;;;9.90;99.90;;;;;;5034491;28;20041;-68
2023/04/13 11:51:04;;;;;;;1.73;0.63;;;9.80;99.90;;;;;;5052672;28;20393;-66
2023/04/13 11:53:31;;;;;;;1.00;0.50;;;9.90;99.90;;;;;;5052578;28;20472;-67
2023/04/13 11:55:56;;;;;;;4.65;1.02;;;10.00;99.90;;;;;;5052259;28;20073;-67
2023/04/13 11:58:23;;;;;;;3.92;0.90;;;;;;;;;;5052581;28;20087;-67
2023/04/13 12:00:49;;;;;;;3.40;0.80;;;;;;;;;;5052513;28;20110;-67
2023/04/13 12:03:19;;;;;;;2.80;0.98;;;;;;;;;;5052430;28;20128;-68
2023/04/13 12:05:46;;;;;;;3.25;0.98;;;;;;;;;;5034896;28;20049;-67
2023/04/13 12:08:22;;;;;;;2.88;0.90;;;;;;;;;;5034263;28;20061;-67
2023/04/13 12:10:56;;;;;;;6.75;0.90;;;;;;;;;;5052408;28;20037;-67
2023/04/13 12:13:22;;;;;;;1.10;0.60;;;;;;;;;;5052330;28;20049;-67
2023/04/13 12:15:48;;;;;;;1.70;0.93;;;;;;;;;;5052020;28;20064;-67
2023/04/13 12:18:15;;;;;;;3.50;1.10;;;;;;;;;;5052086;28;20467;-67
2023/04/13 12:20:43;;;;;;;7.57;0.93;;;;;;;;;;5052376;28;20123;-68
2023/04/13 12:23:24;;;;;;;4.47;0.98;;;;;;;;;;5054663;28;20404;-67
2023/04/13 12:25:55;;;;;;;3.42;1.40;;;;;;;;;;5037917;28;20459;-67
2023/04/13 12:28:21;;;;;;;1.73;0.70;;;;;;;;;;5055625;28;20404;-68
2023/04/13 12:30:47;;;;;;;1.55;0.98;;;;;;;;;;5021214;28;20075;-67
2023/04/13 12:33:13;;;;;;;4.55;0.82;;;;;;;;;;5055796;28;20037;-67
2023/04/13 12:35:39;;;;;;;1.67;0.60;;;;;;;;;;5055807;28;20040;-68
2023/04/13 12:38:06;;;;;;;2.20;0.75;;;;;;;;;;5037652;28;20076;-67
2023/04/13 12:40:33;;;;;;;4.38;0.70;;;;;;;;;;5055780;28;20041;-67
2023/04/13 12:42:59;;;;;;;0.52;0.40;;;;;;;;;;5037763;28;20602;-67
2023/04/13 12:45:25;;;;;;;2.65;1.13;;;;;;;;;;5055335;28;20055;-67
2023/04/13 12:47:51;;;;;;;4.70;0.65;;;;;;;;;;5055571;28;20119;-67
2023/04/13 12:50:17;;;;;;;2.30;0.50;;;;;;;;;;5055606;28;20134;-68
2023/04/13 12:52:44;;;;;;;1.67;0.60;;;;;;;;;;5055276;28;20063;-68
2023/04/13 12:55:10;;;;;;;4.47;0.80;;;;;;;;;;5055464;28;20044;-69
2023/04/13 12:57:36;;;;;;;1.58;0.90;;;;;;;;;;5055147;28;20102;-68
2023/04/13 13:00:07;;;;;;;2.15;0.63;;;;;;;;;;5055132;28;20072;-68
2023/04/13 13:02:33;;;;;;;;;;;;;;;;;;5037986;28;20041;-67
2023/04/13 13:04:59;;;;;;;1.83;0.93;;;;;;;;;;5055023;28;20375;-69
2023/04/13 13:07:25;;;;;;;3.83;0.85;;;;;;;;;;5055150;28;20049;-67
2023/04/13 13:09:52;;;;;;;4.43;0.52;;;;;;;;;;5055191;28;20115;-67
2023/04/13 13:12:18;;;;;;;1.55;0.82;;;;;;;;;;5055273;28;20060;-67
2023/04/13 13:14:44;;;;;;;4.35;0.70;;;;;;;;;;5040874;28;20136;-68
2023/04/13 13:17:10;;;;;;;1.95;0.90;;;;;;;;;;5054994;28;20076;-68